ADDS METAR Data INFO
IDs: Format: Raw Decoded Include TAF

Data at: 2256 UTC 22 Jun 2018

KGBG 222235Z AUTO 02007KT 10SM OVC013 18/15 A2976 RMK AO2 T01810153
KGBG 222215Z AUTO 02008KT 10SM OVC013 18/15 A2977 RMK AO2 T01800152
KGBG 222155Z AUTO 01008KT 10SM OVC015 19/16 A2977 RMK AO2 T01870156
KGBG 222135Z AUTO 02009KT 10SM OVC015 19/16 A2977 RMK AO2 T01880156
KGBG 222115Z AUTO 02008KT 10SM OVC017 19/16 A2976 RMK AO2 T01940157
KGBG 222055Z AUTO 02005KT 10SM BKN012 OVC018 20/16 A2977 RMK AO2 T01950160
KGBG 222035Z AUTO 01008KT 10SM OVC010 19/16 A2977 RMK AO2 T01890161
KGBG 222015Z AUTO 01008KT 10SM OVC010 19/16 A2976 RMK AO2 T01850160
KGBG 221955Z AUTO 36006KT 10SM OVC008 18/16 A2976 RMK AO2 T01830160
KGBG 221935Z AUTO 03008KT 10SM OVC006 18/16 A2976 RMK AO2 T01820164
KGBG 221915Z AUTO 01009KT 10SM OVC006 18/16 A2976 RMK AO2 T01790162
KGBG 221855Z AUTO 02009KT 7SM OVC006 18/17 A2976 RMK AO2 T01790171
KGBG 221835Z AUTO 01011KT 7SM OVC006 18/17 A2977 RMK AO2 T01750168
KGBG 221815Z AUTO 36011KT 3SM BR OVC006 18/17 A2978 RMK AO2 LTG DSNT SE T01750170
KGBG 221755Z AUTO 01009KT 3SM BR OVC008 18/17 A2977 RMK AO2 LTG DSNT SE T01770170 10188 20171
KGBG 221735Z AUTO 02010KT 10SM OVC008 18/17 A2977 RMK AO2 LTG DSNT SE T01810165
KGBG 221710Z AUTO 03006KT 10SM OVC008 18/16 A2977 RMK AO2 T01820161
KGBG 221655Z AUTO 04009KT 10SM OVC010 18/16 A2977 RMK AO2 T01820161
KGBG 221635Z AUTO 02010G14KT 10SM OVC010 18/16 A2977 RMK AO2 T01810160
KGBG 221615Z AUTO 03011KT 10SM OVC008 18/16 A2977 RMK AO2 T01820162
KGBG 221555Z AUTO 03013KT 10SM OVC006 18/17 A2976 RMK AO2 T01800166
KGBG 221535Z AUTO 03011KT 10SM OVC006 18/17 A2976 RMK AO2 T01820165
KGBG 221515Z AUTO 03011KT 10SM OVC006 19/17 A2975 RMK AO2 T01870169
KGBG 221455Z AUTO 02009KT 10SM OVC006 18/17 A2975 RMK AO2 T01790172
KGBG 221435Z AUTO 02011KT 10SM OVC006 18/17 A2975 RMK AO2 T01770170
KGBG 221415Z AUTO 01008KT 10SM OVC006 18/17 A2976 RMK AO2 T01760170
KGBG 221355Z AUTO 01007KT 5SM BR OVC006 18/17 A2976 RMK AO2 T01750170
KGBG 221335Z AUTO 01009KT 5SM BR OVC006 17/17 A2976 RMK AO2 T01730167
KGBG 221315Z AUTO 02009KT 10SM OVC006 18/17 A2976 RMK AO2 T01750167
KGBG 221255Z AUTO 04008KT 10SM OVC008 17/17 A2976 RMK AO2 T01730166
KGBG 221235Z AUTO 03006KT 10SM OVC008 17/17 A2976 RMK AO2 T01730166
KGBG 221215Z AUTO 01009KT 10SM OVC008 17/17 A2975 RMK AO2 T01720166
KGBG 221155Z AUTO 01008KT 10SM -RA OVC008 17/17 A2975 RMK AO2 60006 70041 T01710166 10195 20170
KGBG 221135Z AUTO 01008KT 10SM OVC006 17/17 A2975 RMK AO2 T01700165
KGBG 221115Z AUTO 01008KT 10SM OVC008 17/17 A2975 RMK AO2 T01700165
KGBG 221055Z AUTO 01008KT 10SM -DZ OVC008 17/17 A2975 RMK AO2 T01700165
KGBG 221035Z AUTO 02008KT 10SM OVC008 17/17 A2974 RMK AO2 T01700165
KGBG 221015Z AUTO 03009KT 10SM OVC008 17/17 A2974 RMK AO2 LTG DSNT SE T01710165
KGBG 220955Z AUTO 03009KT 10SM -DZ OVC008 17/17 A2974 RMK AO2 T01700165
KGBG 220935Z AUTO 03011KT 7SM -RA OVC006 17/17 A2974 RMK AO2 T01700165
KGBG 220915Z AUTO 04012KT 4SM BR OVC006 17/17 A2974 RMK AO2 T01710167
KGBG 220855Z AUTO 03011KT 3SM BR OVC004 18/17 A2973 RMK AO2 P0001 60006 T01750170
KGBG 220835Z AUTO 04011G15KT 2 1/2SM -DZ OVC004 18/17 A2973 RMK AO2 P0001 T01760172
KGBG 220815Z AUTO 04011G15KT 2 1/2SM DZ OVC006 18/18 A2972 RMK AO2 LTG DSNT SE P0001 T01800175
KGBG 220755Z AUTO 05009KT 4SM BR BKN006 OVC011 19/18 A2972 RMK AO2 P0005 T01860180
KGBG 220735Z AUTO 04005KT 7SM BKN008 OVC011 19/18 A2972 RMK AO2 P0005 T01900184
KGBG 220715Z AUTO 02008KT 5SM +RA BKN008 OVC012 19/19 A2972 RMK AO2 P0004 T01900185
KGBG 220655Z AUTO 03008KT 10SM -RA OVC010 20/18 A2972 RMK AO2 T01950183
KGBG 220635Z AUTO 05006KT 10SM BKN010 OVC016 20/18 A2973 RMK AO2 T01950178
KGBG 220615Z AUTO 05007KT 10SM BKN008 BKN016 OVC021 20/18 A2973 RMK AO2 T01950178
KGBG 220555Z AUTO 04006KT 10SM OVC008 20/19 A2973 RMK AO2 T01950185 10221 20195 402600186
KGBG 220535Z AUTO 04007KT 10SM OVC008 20/18 A2973 RMK AO2 T01960183
KGBG 220515Z AUTO 05006KT 10SM BKN008 OVC013 20/18 A2974 RMK AO2 LTG DSNT SW T01950184
KGBG 220455Z AUTO 03005KT 10SM BKN008 OVC013 20/19 A2974 RMK AO2 T01950185
KGBG 220435Z AUTO 04007KT 10SM OVC008 20/18 A2974 RMK AO2 T01950183
KGBG 220415Z AUTO 04007KT 10SM OVC010 20/18 A2974 RMK AO2 LTG DSNT SW T01950180
KGBG 220355Z AUTO 05004KT 10SM OVC010 20/19 A2975 RMK AO2 LTG DSNT SW T01950185
KGBG 220335Z AUTO 05005KT 10SM OVC010 20/18 A2975 RMK AO2 LTG DSNT S AND SW T01950180
KGBG 220315Z AUTO 04005KT 10SM VCTS OVC008 20/18 A2975 RMK AO2 LTG DSNT S AND SW T01950178
KGBG 220255Z AUTO 05006KT 10SM OVC008 20/18 A2974 RMK AO2 LTG DSNT SW T01970180
KGBG 220235Z AUTO 05008KT 7SM OVC006 20/18 A2974 RMK AO2 LTG DSNT S AND SW T01960182
KGBG 220215Z AUTO 05009KT 7SM OVC006 20/18 A2973 RMK AO2 LTG DSNT S T01960183
KGBG 220155Z AUTO 06009KT 7SM OVC006 20/19 A2973 RMK AO2 T01970187
KGBG 220135Z AUTO 05012KT 7SM VCTS OVC006 20/18 A2972 RMK AO2 LTG DSNT SE AND S T02000182
KGBG 220115Z AUTO 06011KT 10SM BKN008 BKN026 OVC033 21/19 A2972 RMK AO2 T02070185
KGBG 220055Z AUTO 04008G14KT 10SM SCT010 SCT019 OVC033 21/19 A2971 RMK AO2 T02090185
KGBG 220035Z AUTO 01011KT 10SM BKN033 OVC040 22/19 A2971 RMK AO2 T02180185
KGBG 220015Z AUTO 02006KT 10SM SCT033 SCT038 BKN065 22/19 A2971 RMK AO2 T02200187
KGBG 212355Z AUTO 04006KT 10SM SCT038 BKN075 22/19 A2971 RMK AO2 60035 T02210186 10230 20186
KGBG 212335Z AUTO 04007KT 10SM BKN075 22/19 A2971 RMK AO2 T02240185
KGBG 212315Z AUTO 04005KT 10SM SCT060 OVC075 22/18 A2971 RMK AO2 T02170181
KGBG 212255Z AUTO 04004KT 10SM SCT060 BKN075 OVC095 22/19 A2970 RMK AO2 T02180185
KGBG 212235Z AUTO 05003KT 10SM BKN060 OVC075 22/19 A2971 RMK AO2 T02170187
KGBG 212215Z AUTO 04006KT 10SM BKN060 OVC075 22/18 A2972 RMK AO2 T02160184
KGBG 212155Z AUTO 04007KT 10SM SCT014 SCT060 OVC075 22/19 A2972 RMK AO2 T02200188
KGBG 212135Z AUTO 03006KT 10SM BKN014 OVC021 22/19 A2972 RMK AO2 T02190189
KGBG 212115Z AUTO 04007KT 10SM BKN012 BKN019 OVC032 22/19 A2972 RMK AO2 LTG DSNT E T02170188
KGBG 212050Z AUTO 33006KT 10SM SCT010 BKN022 OVC030 22/19 A2972 RMK AO2 LTG DSNT N AND NE 60035 T02190191
KGBG 212035Z AUTO 33005KT 10SM OVC012 22/19 A2972 RMK AO2 LTG DSNT N AND NE T02190193
KGBG 212015Z AUTO 32005KT 10SM BKN014 BKN120 23/20 A2972 RMK AO2 LTG DSNT N AND NE T02300199
KGBG 211955Z AUTO 28003KT 10SM SCT030 SCT049 BKN120 21/19 A2973 RMK AO2 LTG DSNT N THRU SE P0002 T02140191
KGBG 211935Z AUTO 00000KT 10SM -VCTSRA SCT032 BKN065 OVC120 20/19 A2972 RMK AO2 LTG DSNT NW THRU E P0002 T02020193
KGBG 211915Z AUTO 15003KT 10SM -RA SCT040 SCT065 BKN100 20/18 A2973 RMK AO2 LTG DSNT ALQS T01990181
KGBG 211855Z AUTO 18005KT 10SM -RA SCT029 BKN047 OVC080 19/19 A2971 RMK AO2 LTG DSNT N E AND S P0033 T01940187
KGBG 211835Z AUTO 00000KT 1 1/2SM +TSRA SCT021 BKN028 OVC046 19/17 A2973 RMK AO2 VIS 3/4V4 LTG DSNT ALQS P0029 T01860173
KGBG 211810Z AUTO 22003G18KT 2SM +RA SCT011 BKN018 OVC037 19/17 A2974 RMK AO2 VIS 1/2V5 LTG DSNT ALQS P0011 T01880166
KGBG 211755Z AUTO 24018G24KT 10SM BKN021 BKN027 BKN033 21/17 A2971 RMK AO2 LTG DSNT SE SW AND NW T02080166 10260 20203
KGBG 211735Z AUTO 00000KT 10SM VCTS SCT019 25/20 A2971 RMK AO2 LTG DSNT SW T02510195
KGBG 211715Z AUTO 00000KT 10SM SCT019 BKN029 BKN035 26/20 A2971 RMK AO2 LTG DSNT SW AND W T02560200
KGBG 211655Z AUTO 00000KT 10SM BKN027 BKN035 26/20 A2972 RMK AO2 LTG DSNT NW T02550200
KGBG 211635Z AUTO 11004KT 10SM SCT017 OVC027 25/20 A2973 RMK AO2 LTG DSNT W T02460199
KGBG 211615Z AUTO 09004KT 10SM BKN017 OVC025 25/20 A2973 RMK AO2 LTG DSNT SW AND NW T02490201
KGBG 211555Z AUTO 10003KT 10SM SCT013 OVC023 24/20 A2974 RMK AO2 T02370197
KGBG 211535Z AUTO 00000KT 10SM BKN013 OVC019 23/20 A2974 RMK AO2 T02340196
KGBG 211515Z AUTO 00000KT 10SM BKN013 OVC019 23/20 A2974 RMK AO2 LTG DSNT SW T02300199
KGBG 211450Z AUTO 00000KT 10SM OVC015 23/20 A2974 RMK AO2 T02260197
KGBG 211435Z AUTO 10003KT 10SM OVC013 23/20 A2974 RMK AO2 T02270201
KGBG 211355Z AUTO 10003KT 10SM OVC013 22/20 A2975 RMK AO2 T02220200
KGBG 211335Z AUTO 11003KT 10SM SCT007 OVC013 22/21 A2975 RMK AO2 T02160206
KGBG 211315Z AUTO 00000KT 10SM SCT007 OVC011 21/21 A2976 RMK AO2 T02110205
KGBG 211255Z AUTO 00000KT 10SM SCT005 OVC011 21/21 A2976 RMK AO2 T02100206
KGBG 211235Z AUTO 00000KT 10SM BKN005 OVC011 21/21 A2976 RMK AO2 T02070205
KGBG 211215Z AUTO 00000KT 7SM BKN005 OVC009 21/20 A2976 RMK AO2 T02050203
KGBG 211155Z AUTO 00000KT 7SM OVC003 20/20 A2975 RMK AO2 60035 70128 T02030201 10203 20197
KGBG 211135Z AUTO 00000KT 4SM BR OVC003 20/20 A2975 RMK AO2 T02020200
KGBG 211115Z AUTO 00000KT 4SM BR OVC003 20/20 A2976 RMK AO2 T02020200